createdAt,value
2019-04-11T00:01:57.126Z,10.25
2019-04-11T00:04:26.621Z,9.30
2019-04-11T00:06:56.177Z,9.98
2019-04-11T00:09:27.022Z,9.40
2019-04-11T00:11:57.870Z,9.80
2019-04-11T00:14:27.601Z,10.58
2019-04-11T00:16:57.359Z,8.80
2019-04-11T00:19:27.364Z,10.08
2019-04-11T00:21:57.294Z,10.10
2019-04-11T00:24:27.133Z,9.30
2019-04-11T00:26:57.015Z,9.90
2019-04-11T00:29:26.433Z,9.85
2019-04-11T00:31:56.919Z,10.15
2019-04-11T00:34:26.866Z,9.35
2019-04-11T00:36:56.827Z,9.60
2019-04-11T00:39:26.332Z,11.10
2019-04-11T00:41:56.509Z,10.20
2019-04-11T00:44:27.120Z,9.35
2019-04-11T00:46:56.762Z,10.23
2019-04-11T00:49:26.262Z,10.72
2019-04-11T00:51:56.212Z,10.00
2019-04-11T00:54:26.790Z,10.70
2019-04-11T00:56:56.786Z,11.15
2019-04-11T00:59:26.676Z,10.10
2019-04-11T01:01:56.870Z,10.63
2019-04-11T01:04:27.539Z,9.95
2019-04-11T01:06:56.929Z,10.32
2019-04-11T01:09:26.509Z,9.55
2019-04-11T01:11:56.317Z,10.35
2019-04-11T01:14:25.833Z,8.95
2019-04-11T01:16:56.709Z,10.10
2019-04-11T01:19:26.859Z,8.40
2019-04-11T01:21:57.926Z,9.68
2019-04-11T01:24:28.718Z,8.93
2019-04-11T01:26:57.993Z,7.95
2019-04-11T01:29:27.424Z,8.63
2019-04-11T01:31:58.340Z,7.33
2019-04-11T01:34:28.751Z,8.53
2019-04-11T01:36:58.101Z,6.80
2019-04-11T01:39:29.980Z,8.45
2019-04-11T01:41:59.325Z,9.28
2019-04-11T01:44:28.597Z,8.60
2019-04-11T01:46:58.353Z,8.40
2019-04-11T01:49:30.336Z,9.28
2019-04-11T01:52:02.267Z,9.45
2019-04-11T01:54:32.187Z,8.80
2019-04-11T01:57:03.482Z,9.50
2019-04-11T01:59:33.284Z,7.22
2019-04-11T02:02:07.512Z,7.87
2019-04-11T02:04:38.567Z,8.45
2019-04-11T02:07:08.178Z,8.70
2019-04-11T02:09:38.540Z,8.90
2019-04-11T02:12:08.069Z,7.97
2019-04-11T02:14:37.637Z,9.00
2019-04-11T02:17:08.462Z,8.33
2019-04-11T02:19:38.465Z,8.90
2019-04-11T02:22:12.429Z,8.58
2019-04-11T02:24:54.297Z,7.92
2019-04-11T02:27:26.013Z,8.60
2019-04-11T02:29:55.600Z,8.58
2019-04-11T02:32:28.608Z,8.23
2019-04-11T02:34:59.150Z,8.10
2019-04-11T02:37:29.235Z,7.58
2019-04-11T02:40:00.124Z,8.88
2019-04-11T02:42:30.749Z,7.35
2019-04-11T02:45:18.490Z,9.28
2019-04-11T02:47:35.047Z,8.28
2019-04-11T02:50:05.752Z,8.75
2019-04-11T02:52:35.530Z,9.88
2019-04-11T02:55:09.691Z,9.15
2019-04-11T02:57:38.596Z,9.05
2019-04-11T03:00:11.130Z,8.55
2019-04-11T03:02:42.368Z,8.68
2019-04-11T03:05:13.710Z,9.50
2019-04-11T03:07:43.743Z,9.20
2019-04-11T03:10:14.156Z,9.10
2019-04-11T03:12:45.980Z,9.85
2019-04-11T03:15:31.857Z,9.13
2019-04-11T03:17:48.718Z,9.25
2019-04-11T03:20:28.332Z,9.83
2019-04-11T03:22:56.189Z,9.73
2019-04-11T03:25:20.496Z,9.50
2019-04-11T03:27:51.640Z,8.98
2019-04-11T03:30:34.468Z,8.95
2019-04-11T03:38:21.234Z,9.55
2019-04-11T03:40:48.140Z,10.10
2019-04-11T03:43:10.705Z,9.60
2019-04-11T03:45:47.933Z,10.08
2019-04-11T03:48:12.418Z,9.78
2019-04-11T03:50:33.937Z,9.73
2019-04-11T03:53:04.760Z,9.78
2019-04-11T03:55:34.977Z,8.88
2019-04-11T03:58:06.145Z,9.95
2019-04-11T04:00:40.604Z,10.05
2019-04-11T04:03:09.243Z,9.75
2019-04-11T04:05:41.418Z,10.53
2019-04-11T04:08:10.937Z,9.10
2019-04-11T04:10:43.632Z,9.75
2019-04-11T04:13:17.005Z,9.63
2019-04-11T04:16:02.772Z,9.40
2019-04-11T04:18:25.608Z,9.40
2019-04-11T04:21:01.334Z,10.03
2019-04-11T04:23:36.440Z,8.98
2019-04-11T04:26:09.585Z,9.28
2019-04-11T04:28:38.684Z,9.80
2019-04-11T04:31:09.758Z,9.53
2019-04-11T04:33:40.362Z,10.10
2019-04-11T04:36:10.960Z,9.35
2019-04-11T04:38:41.556Z,10.85
2019-04-11T04:41:23.908Z,9.85
2019-04-11T04:43:45.734Z,9.78
2019-04-11T04:46:31.428Z,9.88
2019-04-11T04:48:47.753Z,10.30
2019-04-11T04:51:19.667Z,9.70
2019-04-11T04:53:50.156Z,9.93
2019-04-11T04:56:25.958Z,10.65
2019-04-11T04:58:53.953Z,10.70
2019-04-11T05:01:23.779Z,10.70
2019-04-11T05:03:54.107Z,11.40
2019-04-11T05:06:24.111Z,10.53
2019-04-11T05:08:53.556Z,11.22
2019-04-11T05:11:23.232Z,9.53
2019-04-11T05:13:53.042Z,10.70
2019-04-11T05:16:23.768Z,10.75
2019-04-11T05:18:54.641Z,10.95
2019-04-11T05:21:24.057Z,10.48
2019-04-11T05:23:55.038Z,10.95
2019-04-11T05:26:25.592Z,11.03
2019-04-11T05:28:55.286Z,10.58
2019-04-11T05:31:24.851Z,11.80
2019-04-11T05:33:54.228Z,11.10
2019-04-11T05:36:24.713Z,10.98
2019-04-11T05:38:54.764Z,10.03
2019-04-11T05:41:26.159Z,10.85
2019-04-11T05:43:55.774Z,10.75
2019-04-11T05:46:34.524Z,12.15
2019-04-11T05:49:02.675Z,11.40
2019-04-11T05:51:37.839Z,10.28
2019-04-11T05:54:07.481Z,11.70
2019-04-11T05:56:35.520Z,11.05
2019-04-11T05:59:14.684Z,11.78
2019-04-11T06:01:48.801Z,11.50
2019-04-11T06:04:23.329Z,11.73
2019-04-11T06:06:59.690Z,10.68
2019-04-11T06:09:34.739Z,10.05
2019-04-11T06:12:09.478Z,10.72
2019-04-11T06:14:47.198Z,10.28
2019-04-11T06:17:18.669Z,10.63
2019-04-11T06:19:53.543Z,10.55
2019-04-11T06:22:23.546Z,11.03
2019-04-11T06:25:11.271Z,11.22
2019-04-11T06:27:49.311Z,11.43
2019-04-11T06:30:38.056Z,10.90
2019-04-11T06:33:12.302Z,11.28
2019-04-11T06:35:46.336Z,10.63
2019-04-11T06:38:20.565Z,11.12
2019-04-11T06:40:52.455Z,10.00
2019-04-11T06:43:23.774Z,10.20
2019-04-11T06:46:11.140Z,10.20
2019-04-11T06:48:42.219Z,10.00
2019-04-11T06:51:15.969Z,10.10
2019-04-11T06:53:46.913Z,10.13
2019-04-11T06:56:27.308Z,10.32
2019-04-11T06:58:59.613Z,10.32
2019-04-11T07:01:30.509Z,9.55
2019-04-11T07:04:01.521Z,10.55
2019-04-11T07:06:32.455Z,9.78
2019-04-11T07:09:20.216Z,10.03
2019-04-11T07:12:03.506Z,10.45
2019-04-11T07:14:35.623Z,9.98
2019-04-11T07:17:23.403Z,10.45
2019-04-11T07:20:11.004Z,5.97
2019-04-11T07:22:58.115Z,9.90
2019-04-11T07:25:29.053Z,9.73
2019-04-11T07:28:12.094Z,8.83
2019-04-11T07:31:00.418Z,9.98
2019-04-11T07:33:31.542Z,8.35
2019-04-11T07:36:20.847Z,8.67
2019-04-11T07:38:54.597Z,7.90
2019-04-11T07:41:38.949Z,8.07
2019-04-11T07:44:23.885Z,9.03
2019-04-11T07:46:58.250Z,7.57
2019-04-11T07:49:35.038Z,8.63
2019-04-11T07:52:07.022Z,8.43
2019-04-11T07:54:36.923Z,7.97
2019-04-11T07:57:17.198Z,7.90
2019-04-11T07:59:55.694Z,8.50
2019-04-11T08:02:43.348Z,8.57
2019-04-11T08:05:21.482Z,8.27
2019-04-11T08:08:11.023Z,7.57
2019-04-11T08:10:50.836Z,8.23
2019-04-11T08:13:30.711Z,8.93
2019-04-11T08:16:10.868Z,8.63
2019-04-11T08:18:51.066Z,8.43
2019-04-11T08:21:33.204Z,8.53
2019-04-11T08:24:20.490Z,8.00
2019-04-11T08:26:55.440Z,8.40
2019-04-11T08:29:24.871Z,8.70
2019-04-11T08:32:12.248Z,8.60
2019-04-11T08:34:48.951Z,9.53
2019-04-11T08:37:25.908Z,7.07
2019-04-11T08:39:57.645Z,8.07
2019-04-11T08:42:45.217Z,7.70
2019-04-11T08:45:17.419Z,8.80
2019-04-11T08:47:53.947Z,8.37
2019-04-11T08:50:22.747Z,8.27
2019-04-11T08:52:56.486Z,8.43
2019-04-11T08:55:27.423Z,8.80
2019-04-11T08:57:58.368Z,7.87
2019-04-11T09:00:33.103Z,8.03
2019-04-11T09:03:21.961Z,7.80
2019-04-11T09:06:02.409Z,7.83
2019-04-11T09:08:34.846Z,8.30
2019-04-11T09:11:12.782Z,9.20
2019-04-11T09:14:00.265Z,7.53
2019-04-11T09:16:41.519Z,8.50
2019-04-11T09:19:21.341Z,8.30
2019-04-11T09:21:52.830Z,8.90
2019-04-11T09:24:32.899Z,7.60
2019-04-11T09:27:20.474Z,7.30
2019-04-11T09:29:52.491Z,8.37
2019-04-11T09:32:40.429Z,8.53
2019-04-11T09:35:22.057Z,9.20
2019-04-11T09:37:51.817Z,8.33
2019-04-11T09:40:31.957Z,8.60
2019-04-11T09:43:12.426Z,9.00
2019-04-11T09:46:00.296Z,8.43
2019-04-11T09:48:37.878Z,8.90
2019-04-11T09:51:28.621Z,8.87
2019-04-11T09:54:01.484Z,6.87
2019-04-11T09:56:49.216Z,8.73
2019-04-11T09:59:29.497Z,9.10
2019-04-11T10:02:16.845Z,8.23
2019-04-11T10:04:48.145Z,8.33
2019-04-11T10:07:31.248Z,9.57
2019-04-11T10:10:19.049Z,9.57
2019-04-11T10:13:06.788Z,8.70
2019-04-11T10:15:41.142Z,8.40
2019-04-11T10:18:33.771Z,9.43
2019-04-11T10:20:59.817Z,9.80
2019-04-11T10:23:36.734Z,8.50
2019-04-11T10:26:06.017Z,8.57
2019-04-11T10:28:43.931Z,8.43
2019-04-11T10:31:14.560Z,8.43
2019-04-11T10:33:49.035Z,8.37
2019-04-11T10:36:27.229Z,9.47
2019-04-11T10:39:15.316Z,8.80
2019-04-11T10:41:47.897Z,8.53
2019-04-11T10:44:19.344Z,7.73
2019-04-11T10:46:52.948Z,8.30
2019-04-11T10:49:38.966Z,9.90
2019-04-11T10:52:22.521Z,8.73
2019-04-11T10:55:09.390Z,7.97
2019-04-11T10:57:42.387Z,8.63
2019-04-11T11:00:31.318Z,8.40
2019-04-11T11:03:09.296Z,8.83
2019-04-11T11:05:43.324Z,7.63
2019-04-11T11:08:21.568Z,9.10
2019-04-11T11:10:52.700Z,8.07
2019-04-11T11:13:40.780Z,8.30
2019-04-11T11:16:11.872Z,8.30
2019-04-11T11:19:24.429Z,9.07
2019-04-11T11:21:29.915Z,7.33
2019-04-11T11:24:13.900Z,8.87
2019-04-11T11:26:43.325Z,8.10
2019-04-11T11:29:32.757Z,8.80
2019-04-11T11:32:05.010Z,8.40
2019-04-11T11:34:38.955Z,8.60
2019-04-11T11:37:14.174Z,8.00
2019-04-11T11:40:06.306Z,8.30
2019-04-11T11:42:48.622Z,9.60
2019-04-11T11:45:23.530Z,8.87
2019-04-11T11:48:09.947Z,7.90
2019-04-11T11:50:37.508Z,8.83
2019-04-11T11:53:20.848Z,9.27
2019-04-11T11:55:51.648Z,9.67
2019-04-11T11:58:23.694Z,8.60
2019-04-11T12:01:05.866Z,6.87
2019-04-11T12:03:40.708Z,7.90
2019-04-11T12:06:10.482Z,8.47
2019-04-11T12:08:51.320Z,8.53
2019-04-11T12:11:22.020Z,8.80
2019-04-11T12:14:10.127Z,8.47
2019-04-11T12:17:01.334Z,8.60
2019-04-11T12:19:45.781Z,9.60
2019-04-11T12:22:04.279Z,8.97
2019-04-11T12:24:36.501Z,8.60
2019-04-11T12:27:11.522Z,9.40
2019-04-11T12:30:01.401Z,10.30
2019-04-11T12:32:35.245Z,10.00
2019-04-11T12:35:08.162Z,10.77
2019-04-11T12:37:39.231Z,7.87
2019-04-11T12:40:22.614Z,8.57
2019-04-11T12:42:53.236Z,8.90
2019-04-11T12:45:24.182Z,9.37
2019-04-11T12:47:53.789Z,10.47
2019-04-11T12:50:33.485Z,9.30
2019-04-11T12:53:04.425Z,9.20
2019-04-11T12:55:39.026Z,10.40
2019-04-11T12:58:12.993Z,10.70
2019-04-11T13:00:47.546Z,10.10
2019-04-11T13:03:35.108Z,9.10
2019-04-11T13:06:34.856Z,8.40
2019-04-11T13:09:09.606Z,10.07
2019-04-11T13:11:40.608Z,8.83
2019-04-11T13:14:23.559Z,10.53
2019-04-11T13:16:54.486Z,10.30
2019-04-11T13:19:29.440Z,9.70
2019-04-11T13:22:00.704Z,10.03
2019-04-11T13:24:49.963Z,10.53
2019-04-11T13:27:23.320Z,9.00
2019-04-11T13:30:10.751Z,7.90
2019-04-11T13:32:42.018Z,8.80
2019-04-11T13:35:13.024Z,10.17
2019-04-11T13:38:00.588Z,9.00
2019-04-11T13:40:31.538Z,8.53
2019-04-11T13:43:18.696Z,10.47
2019-04-11T13:45:52.707Z,10.17
2019-04-11T13:48:23.648Z,9.10
2019-04-11T13:50:54.588Z,8.77
2019-04-11T13:53:28.447Z,10.40
2019-04-11T13:55:57.745Z,10.33
2019-04-11T13:58:31.346Z,9.47
2019-04-11T14:01:01.169Z,9.20
2019-04-11T14:03:44.766Z,8.17
2019-04-11T14:06:18.387Z,8.57
2019-04-11T14:08:49.324Z,9.10
2019-04-11T14:11:23.261Z,9.23
2019-04-11T14:13:54.276Z,8.93
2019-04-11T14:16:25.439Z,9.73
2019-04-11T14:19:12.437Z,8.80
2019-04-11T14:21:44.215Z,9.23
2019-04-11T14:24:33.533Z,9.40
2019-04-11T14:27:04.479Z,9.27
2019-04-11T14:29:41.113Z,8.90
2019-04-11T14:32:27.705Z,8.00
2019-04-11T14:35:15.375Z,8.63
2019-04-11T14:37:46.573Z,8.67
2019-04-11T14:40:17.748Z,9.70
2019-04-11T14:43:03.791Z,8.13
2019-04-11T14:45:44.114Z,9.20
2019-04-11T14:48:15.417Z,9.00
2019-04-11T14:50:49.528Z,8.40
2019-04-11T14:53:37.165Z,8.70
2019-04-11T14:56:11.393Z,9.10
2019-04-11T14:59:00.534Z,10.17
2019-04-11T15:01:31.106Z,8.80
2019-04-11T15:04:18.276Z,9.87
2019-04-11T15:06:51.897Z,8.90
2019-04-11T15:09:39.543Z,7.83
2019-04-11T15:12:13.284Z,8.57
2019-04-11T15:14:51.508Z,9.73
2019-04-11T15:17:24.335Z,9.77
2019-04-11T15:20:04.510Z,9.20
2019-04-11T15:22:44.685Z,9.20
2019-04-11T15:25:15.667Z,9.40
2019-04-11T15:27:55.639Z,8.80
2019-04-11T15:30:26.881Z,10.07
2019-04-11T15:33:13.111Z,8.87
2019-04-11T15:35:44.049Z,10.20
2019-04-11T15:38:31.464Z,9.97
2019-04-11T15:41:02.047Z,9.83
2019-04-11T15:43:51.259Z,10.03
2019-04-11T15:46:22.219Z,8.53
2019-04-11T15:49:02.093Z,9.77
2019-04-11T15:51:39.420Z,10.30
2019-04-11T15:54:10.354Z,9.23
2019-04-11T15:56:53.324Z,9.83
2019-04-11T15:59:27.017Z,10.57
2019-04-11T16:02:16.428Z,10.50
2019-04-11T16:04:47.464Z,9.93
2019-04-11T16:07:30.416Z,9.57
2019-04-11T16:10:01.589Z,9.23
2019-04-11T16:12:48.860Z,10.77
2019-04-11T16:15:23.302Z,9.47
2019-04-11T16:18:06.805Z,9.00
2019-04-11T16:20:36.459Z,9.33
2019-04-11T16:23:13.420Z,10.30
2019-04-11T16:25:44.179Z,8.90
2019-04-11T16:28:21.363Z,9.63
2019-04-11T16:30:52.801Z,9.17
2019-04-11T16:33:23.769Z,9.80
2019-04-11T16:35:57.874Z,9.20
2019-04-11T16:38:28.968Z,8.70
2019-04-11T16:41:16.358Z,8.73
2019-04-11T16:43:47.317Z,9.23
2019-04-11T16:46:24.836Z,9.50
2019-04-11T16:48:55.964Z,9.40
2019-04-11T16:51:30.980Z,7.90
2019-04-11T16:54:00.652Z,9.27
2019-04-11T16:56:29.960Z,9.53
2019-04-11T16:58:59.252Z,8.73
2019-04-11T17:01:28.861Z,9.10
2019-04-11T17:03:59.480Z,9.63
2019-04-11T17:06:33.092Z,9.00
2019-04-11T17:09:04.022Z,10.10
2019-04-11T17:11:33.392Z,10.80
2019-04-11T17:14:02.686Z,10.20
2019-04-11T17:16:31.977Z,11.13
2019-04-11T17:19:05.041Z,10.00
2019-04-11T17:21:42.730Z,8.70
2019-04-11T17:24:04.600Z,9.30
2019-04-11T17:26:33.956Z,9.00
2019-04-11T17:29:03.291Z,10.20
2019-04-11T17:31:32.851Z,9.37
2019-04-11T17:34:02.791Z,9.90
2019-04-11T17:36:33.773Z,9.77
2019-04-11T17:39:06.996Z,10.03
2019-04-11T17:41:36.165Z,8.90
2019-04-11T17:44:05.481Z,8.60
2019-04-11T17:46:34.823Z,8.73
2019-04-11T17:49:04.116Z,9.17
2019-04-11T17:51:34.811Z,8.60
2019-04-11T17:54:04.759Z,8.13
2019-04-11T17:56:34.050Z,7.43
2019-04-11T17:59:03.676Z,8.67
2019-04-11T18:01:33.519Z,8.00
2019-04-11T18:04:03.184Z,8.73
2019-04-11T18:06:32.471Z,8.30
2019-04-11T18:09:02.097Z,8.98
2019-04-11T18:11:33.033Z,8.08
2019-04-11T18:14:02.646Z,8.43
2019-04-11T18:16:32.254Z,8.78
2019-04-11T18:19:05.776Z,7.45
2019-04-11T18:21:34.865Z,7.90
2019-04-11T18:24:04.493Z,7.72
2019-04-11T18:26:33.968Z,9.48
2019-04-11T18:29:03.252Z,9.45
2019-04-11T18:31:32.560Z,8.98
2019-04-11T18:34:02.610Z,7.97
2019-04-11T18:36:33.627Z,8.95
2019-04-11T18:39:05.956Z,7.87
2019-04-11T18:41:35.423Z,8.58
2019-04-11T18:44:05.155Z,7.95
2019-04-11T18:46:34.451Z,8.23
2019-04-11T18:49:03.745Z,8.15
2019-04-11T18:51:33.031Z,8.88
2019-04-11T18:54:02.330Z,8.63
2019-04-11T18:56:31.932Z,8.68
2019-04-11T18:59:03.554Z,8.05
2019-04-11T19:01:32.868Z,8.10
2019-04-11T19:04:02.252Z,8.35
2019-04-11T19:06:31.789Z,8.65
2019-04-11T19:09:01.156Z,8.60
2019-04-11T19:11:32.074Z,8.15
2019-04-11T19:14:01.388Z,7.97
2019-04-11T19:16:30.733Z,8.25
2019-04-11T19:19:01.820Z,7.53
2019-04-11T19:21:31.587Z,8.00
2019-04-11T19:24:01.196Z,8.23
2019-04-11T19:26:30.796Z,7.37
2019-04-11T19:29:01.156Z,8.55
2019-04-11T19:31:30.738Z,8.50
2019-04-11T19:34:04.375Z,8.68
2019-04-11T19:36:31.019Z,8.38
2019-04-11T19:39:01.287Z,8.13
2019-04-11T19:41:32.406Z,7.90
2019-04-11T19:44:01.972Z,7.47
2019-04-11T19:46:31.295Z,7.67
2019-04-11T19:49:00.591Z,7.35
2019-04-11T19:51:29.886Z,8.10
2019-04-11T19:54:02.928Z,8.60
2019-04-11T19:56:35.655Z,8.35
2019-04-11T19:59:04.973Z,7.95
2019-04-11T20:01:34.264Z,8.33
2019-04-11T20:04:03.557Z,7.97
2019-04-11T20:06:32.852Z,7.97
2019-04-11T20:09:02.541Z,9.95
2019-04-11T20:11:33.463Z,8.05
2019-04-11T20:14:03.209Z,8.45
2019-04-11T20:16:41.850Z,7.37
2019-04-11T20:19:03.521Z,8.45
2019-04-11T20:21:32.813Z,8.48
2019-04-11T20:24:02.109Z,9.08
2019-04-11T20:26:31.409Z,8.13
2019-04-11T20:29:00.699Z,8.20
2019-04-11T20:31:29.986Z,7.17
2019-04-11T20:34:01.457Z,8.40
2019-04-11T20:36:33.657Z,8.35
2019-04-11T20:39:01.616Z,7.70
2019-04-11T20:41:32.774Z,8.78
2019-04-11T20:44:02.069Z,7.92
2019-04-11T20:46:31.351Z,8.38
2019-04-11T20:49:01.007Z,8.35
2019-04-11T20:51:30.360Z,8.45
2019-04-11T20:53:59.700Z,8.33
2019-04-11T20:56:30.205Z,8.58
2019-04-11T20:58:59.544Z,8.20
2019-04-11T21:01:28.845Z,8.50
2019-04-11T21:04:00.366Z,8.78
2019-04-11T21:06:31.712Z,7.90
2019-04-11T21:09:02.844Z,8.78
2019-04-11T21:11:36.529Z,8.98
2019-04-11T21:14:04.064Z,8.70
2019-04-11T21:16:33.637Z,7.60
2019-04-11T21:19:03.237Z,8.25
2019-04-11T21:21:32.627Z,8.48
2019-04-11T21:24:02.422Z,8.88
2019-04-11T21:26:31.780Z,8.40
2019-04-11T21:29:01.115Z,8.40
2019-04-11T21:31:31.070Z,7.90
2019-04-11T21:34:02.259Z,8.40
2019-04-11T21:36:32.340Z,8.15
2019-04-11T21:39:03.911Z,9.90
2019-04-11T21:41:36.289Z,8.90
2019-04-11T21:44:06.914Z,8.43
2019-04-11T21:46:38.167Z,9.03
2019-04-11T21:49:07.696Z,8.55
2019-04-11T21:51:56.450Z,8.73
2019-04-11T21:54:25.876Z,9.40
2019-04-11T21:56:55.685Z,9.18
2019-04-11T21:59:25.247Z,8.70
2019-04-11T22:01:54.769Z,8.55
2019-04-11T22:04:26.866Z,9.28
2019-04-11T22:06:55.780Z,9.35
2019-04-11T22:09:25.737Z,9.53
2019-04-11T22:11:55.149Z,9.38
2019-04-11T22:14:24.432Z,8.25
2019-04-11T22:16:55.054Z,8.65
2019-04-11T22:19:24.571Z,9.13
2019-04-11T22:21:53.847Z,9.35
2019-04-11T22:24:23.141Z,9.03
2019-04-11T22:26:52.438Z,9.00
2019-04-11T22:29:24.865Z,9.55
2019-04-11T22:31:55.775Z,9.33
2019-04-11T22:34:32.028Z,9.18
2019-04-11T22:37:01.308Z,9.30
2019-04-11T22:39:31.517Z,8.33
2019-04-11T22:42:01.668Z,9.45
2019-04-11T22:44:30.955Z,9.10
2019-04-11T22:47:01.611Z,9.15
2019-04-11T22:49:31.208Z,10.08
2019-04-11T22:52:00.499Z,8.60
2019-04-11T22:54:29.795Z,9.15
2019-04-11T22:56:59.252Z,9.08
2019-04-11T22:59:28.820Z,8.78
2019-04-11T23:01:59.748Z,9.10
2019-04-11T23:04:29.369Z,8.40
2019-04-11T23:06:58.653Z,8.95
2019-04-11T23:09:27.949Z,9.80
2019-04-11T23:11:57.240Z,8.80
2019-04-11T23:14:26.534Z,9.18
2019-04-11T23:16:55.818Z,9.73
2019-04-11T23:19:25.113Z,9.58
2019-04-11T23:21:54.391Z,9.70
2019-04-11T23:24:23.996Z,9.20
2019-04-11T23:26:53.583Z,8.10
2019-04-11T23:29:23.236Z,8.48
2019-04-11T23:31:52.515Z,9.08
2019-04-11T23:34:22.150Z,9.28
2019-04-11T23:36:52.077Z,7.75
2019-04-11T23:39:23.016Z,8.88
2019-04-11T23:41:52.359Z,9.00
2019-04-11T23:44:21.977Z,9.50
2019-04-11T23:46:51.975Z,9.33
2019-04-11T23:49:24.897Z,8.93
2019-04-11T23:51:55.653Z,9.13
2019-04-11T23:54:24.011Z,9.50
2019-04-11T23:56:53.305Z,8.90
2019-04-11T23:59:22.579Z,8.93
